Time;durP1;ratioP1;P1;durP2;ratioP2;P2;SDS_P1;SDS_P2;PMS_P1;PMS_P2;Temp;Humidity;BMP_temperature;BMP_pressure;BME280_temperature;BME280_humidity;BME280_pressure;Samples;Min_cycle;Max_cycle;Signal;HPM_P1;HPM_P2
2022/08/16 00:00:12;;;;;;;7.97;5.07;;;;;;;19.61;69.82;98006.47;4914933;29;20246;-58
2022/08/16 00:02:41;;;;;;;9.63;5.13;;;;;;;19.65;69.47;97996.25;4908138;29;20236;-58
2022/08/16 00:05:10;;;;;;;9.37;5.50;;;;;;;19.73;69.42;98002.03;4903682;29;20228;-58
2022/08/16 00:07:37;;;;;;;6.83;5.27;;;;;;;19.76;68.60;98003.41;4916295;29;20237;-58
2022/08/16 00:10:09;;;;;;;10.30;5.20;;;;;;;19.75;68.49;98005.25;4914476;29;20246;-59
2022/08/16 00:12:36;;;;;;;5.83;4.93;;;;;;;19.79;68.95;97999.50;4906988;29;20238;-59
2022/08/16 00:15:07;;;;;;;7.60;5.57;;;;;;;19.75;69.52;98004.47;4910644;29;20703;-58
2022/08/16 00:17:34;;;;;;;10.17;4.90;;;;;;;19.75;69.80;97996.50;4916678;29;20227;-58
2022/08/16 00:20:07;;;;;;;8.10;5.03;;;;;;;19.77;69.22;97999.75;4914146;29;20719;-58
2022/08/16 00:22:34;;;;;;;8.17;5.50;;;;;;;19.76;69.05;98001.56;4912923;29;20645;-58
2022/08/16 00:25:01;;;;;;;5.20;4.70;;;;;;;19.73;69.28;98002.03;4913685;29;20280;-58
2022/08/16 00:27:28;;;;;;;7.40;5.50;;;;;;;19.74;69.78;98000.19;4912172;29;20242;-57
2022/08/16 00:29:55;;;;;;;6.77;4.67;;;;;;;19.70;69.92;97996.38;4927030;29;20256;-59
2022/08/16 00:32:22;;;;;;;7.03;5.47;;;;;;;19.68;70.72;97990.50;4919225;29;21164;-59
2022/08/16 00:34:49;;;;;;;8.33;5.23;;;;;;;19.63;70.14;97991.16;4930027;29;20937;-59
2022/08/16 00:37:18;;;;;;;5.80;4.60;;;;;;;19.62;70.63;97995.66;4918690;29;20607;-59
2022/08/16 00:39:45;;;;;;;5.30;4.80;;;;;;;19.58;71.48;97985.75;4909164;29;20711;-59
2022/08/16 00:42:11;;;;;;;5.30;4.80;;;;;;;19.57;71.10;97989.44;4929601;28;20245;-58
2022/08/16 00:44:43;;;;;;;5.17;4.60;;;;;;;19.55;72.14;97989.66;4927153;29;20325;-58
2022/08/16 00:47:15;;;;;;;7.53;4.70;;;;;;;19.51;73.19;97998.28;4927668;29;20226;-59
2022/08/16 00:49:42;;;;;;;7.18;5.20;;;;;;;19.49;73.51;97995.06;4911294;29;20541;-58
2022/08/16 00:52:09;;;;;;;6.83;4.90;;;;;;;19.50;72.56;97996.66;4927461;29;20255;-59
2022/08/16 00:54:37;;;;;;;7.47;5.20;;;;;;;19.47;72.59;97989.97;4903092;29;20319;-58
2022/08/16 00:57:09;;;;;;;5.03;4.53;;;;;;;19.54;71.07;97992.53;4926558;29;20240;-59
2022/08/16 00:59:39;;;;;;;5.23;4.60;;;;;;;19.61;70.90;97987.94;4905108;29;20233;-57
2022/08/16 01:02:09;;;;;;;6.53;4.70;;;;;;;19.64;70.83;97997.28;4902649;29;20294;-58
2022/08/16 01:04:36;;;;;;;5.77;4.60;;;;;;;19.69;71.63;97997.41;4913160;29;20238;-57
2022/08/16 01:07:06;;;;;;;6.43;4.97;;;;;;;19.71;70.95;97995.34;4912377;29;20257;-59
2022/08/16 01:09:35;;;;;;;5.20;4.27;;;;;;;19.73;71.14;97996.72;4906504;29;20239;-57
2022/08/16 01:12:07;;;;;;;6.17;4.70;;;;;;;19.73;71.76;97993.28;4927609;29;20255;-58
2022/08/16 01:14:40;;;;;;;8.50;5.10;;;;;;;19.74;71.17;97997.53;4927661;29;20312;-58
2022/08/16 01:17:08;;;;;;;6.10;4.43;;;;;;;19.72;71.38;97999.63;4934056;29;20733;-57
2022/08/16 01:19:39;;;;;;;7.20;4.97;;;;;;;19.71;71.73;98003.28;4917131;29;20699;-58
2022/08/16 01:22:13;;;;;;;9.13;4.83;;;;;;;19.74;71.51;98006.28;4915686;29;20325;-59
2022/08/16 01:24:45;;;;;;;5.53;4.93;;;;;;;19.74;71.55;98003.63;4930827;29;20232;-59
2022/08/16 01:27:17;;;;;;;4.77;4.27;;;;;;;19.76;71.43;98006.06;4916825;29;20238;-58
2022/08/16 01:29:54;;;;;;;8.17;4.70;;;;;;;19.72;71.65;98005.69;4916693;29;20231;-58
2022/08/16 01:32:21;;;;;;;5.80;4.50;;;;;;;19.73;71.46;98009.16;4931695;28;20239;-58
2022/08/16 01:34:48;;;;;;;6.23;4.50;;;;;;;19.75;71.13;98009.75;4931549;29;22433;-58
2022/08/16 01:37:15;;;;;;;5.03;4.47;;;;;;;19.75;70.97;98010.53;4916789;29;20898;-58
2022/08/16 01:39:44;;;;;;;5.93;4.47;;;;;;;19.79;71.17;98005.63;4930365;28;20257;-58
2022/08/16 01:42:11;;;;;;;5.70;4.37;;;;;;;19.76;70.30;98006.06;4914607;29;20266;-58
2022/08/16 01:44:39;;;;;;;5.60;4.47;;;;;;;19.75;70.48;98005.25;4929940;29;20578;-58
2022/08/16 01:47:07;;;;;;;10.83;5.10;;;;;;;19.81;70.23;98000.09;4932706;29;20287;-58
2022/08/16 01:49:37;;;;;;;5.83;4.30;;;;;;;19.77;70.17;98002.38;4916352;29;20313;-58
2022/08/16 01:52:10;;;;;;;8.67;4.47;;;;;;;19.79;69.99;97997.69;4915865;29;20697;-58
2022/08/16 01:54:59;;;;;;;5.93;4.70;;;;;;;19.77;69.91;98002.38;4908128;29;20237;-57
2022/08/16 01:57:28;;;;;;;7.73;4.73;;;;;;;19.80;69.02;97996.66;4931893;29;20238;-58
2022/08/16 01:59:55;;;;;;;5.90;4.63;;;;;;;19.83;70.08;97995.38;4920670;29;20787;-59
2022/08/16 02:02:23;;;;;;;6.53;4.70;;;;;;;19.86;68.78;97997.56;4912174;29;20242;-58
2022/08/16 02:04:50;;;;;;;6.50;4.63;;;;;;;19.84;68.76;97997.81;4912449;29;20230;-58
2022/08/16 02:07:18;;;;;;;5.63;4.40;;;;;;;19.83;68.79;97996.19;4918666;29;20695;-58
2022/08/16 02:09:46;;;;;;;8.23;4.80;;;;;;;19.87;68.55;97989.41;4935495;29;20615;-58
2022/08/16 02:12:16;;;;;;;5.33;4.83;;;;;;;19.84;68.54;97992.50;4932853;29;20568;-58
2022/08/16 02:14:43;;;;;;;5.27;4.60;;;;;;;19.89;67.40;97992.66;4915201;29;20772;-58
2022/08/16 02:17:12;;;;;;;5.73;5.10;;;;;;;19.89;67.77;97994.50;4915467;29;20245;-58
2022/08/16 02:19:42;;;;;;;7.17;5.23;;;;;;;19.88;67.92;97993.66;4914767;29;20232;-58
2022/08/16 02:22:17;;;;;;;6.20;4.93;;;;;;;19.89;68.30;97994.50;4908221;29;20263;-58
2022/08/16 02:24:45;;;;;;;8.87;4.63;;;;;;;19.84;68.24;97987.22;4931620;29;20230;-58
2022/08/16 02:27:14;;;;;;;7.27;5.33;;;;;;;19.83;68.17;97987.44;4918787;29;20237;-59
2022/08/16 02:29:44;;;;;;;7.60;5.30;;;;;;;19.83;68.03;97987.44;4937112;29;20281;-59
2022/08/16 02:32:12;;;;;;;6.03;4.90;;;;;;;19.84;68.16;97973.16;4930842;29;20238;-58
2022/08/16 02:34:40;;;;;;;7.03;4.83;;;;;;;19.88;67.64;97976.97;4913480;29;20770;-58
2022/08/16 02:37:09;;;;;;;9.03;5.00;;;;;;;19.87;67.85;97962.94;4931216;29;20228;-59
2022/08/16 02:39:36;;;;;;;8.13;5.53;;;;;;;19.86;67.83;97971.06;4929867;29;20256;-59
2022/08/16 02:42:03;;;;;;;6.47;5.17;;;;;;;19.83;68.07;97974.19;4930837;29;20265;-58
2022/08/16 02:44:31;;;;;;;9.73;5.23;;;;;;;19.88;67.59;97963.72;4914291;29;20228;-58
2022/08/16 02:46:59;;;;;;;7.53;5.23;;;;;;;19.86;67.92;97958.66;4932069;29;20238;-57
2022/08/16 02:49:28;;;;;;;6.60;5.57;;;;;;;19.82;68.08;97960.16;4919510;28;20242;-58
2022/08/16 02:51:55;;;;;;;8.43;5.87;;;;;;;19.80;67.87;97959.56;4919191;29;20239;-57
2022/08/16 02:54:22;;;;;;;7.90;5.27;;;;;;;19.81;68.66;97960.38;4930837;29;21079;-58
2022/08/16 02:56:49;;;;;;;7.00;5.30;;;;;;;19.84;68.53;97959.91;4930254;28;20333;-58
2022/08/16 02:59:17;;;;;;;8.67;4.97;;;;;;;19.79;68.95;97952.66;4929956;29;20236;-57
2022/08/16 03:01:45;;;;;;;6.90;5.37;;;;;;;19.75;68.65;97948.84;4928262;29;20240;-58
2022/08/16 03:04:17;;;;;;;9.83;5.17;;;;;;;19.75;69.60;97952.28;4928298;29;20238;-58
2022/08/16 03:06:45;;;;;;;7.17;5.20;;;;;;;19.75;69.77;97954.94;4909995;29;20222;-58
2022/08/16 03:09:20;;;;;;;6.00;5.37;;;;;;;19.76;67.86;97958.41;4930098;29;20349;-58
2022/08/16 03:11:52;;;;;;;7.43;5.77;;;;;;;19.82;67.74;97951.38;4913933;29;20242;-58
2022/08/16 03:14:19;;;;;;;8.27;5.10;;;;;;;19.85;67.03;97946.44;4930959;28;20277;-58
2022/08/16 03:16:48;;;;;;;5.90;5.27;;;;;;;19.87;67.17;97952.34;4929597;29;20300;-58
2022/08/16 03:19:15;;;;;;;6.67;5.00;;;;;;;19.93;66.25;97944.53;4933077;29;20250;-58
2022/08/16 03:21:44;;;;;;;7.63;4.97;;;;;;;19.95;66.06;97940.63;4929230;29;20941;-58
2022/08/16 03:24:11;;;;;;;6.33;5.30;;;;;;;20.04;65.58;97931.28;4930263;29;20234;-58
2022/08/16 03:26:38;;;;;;;7.97;5.47;;;;;;;20.13;65.19;97933.59;4917817;29;20234;-58
2022/08/16 03:29:05;;;;;;;6.73;5.03;;;;;;;20.18;65.08;97939.81;4930512;29;20234;-58
2022/08/16 03:31:32;;;;;;;7.83;5.13;;;;;;;20.11;65.63;97933.84;4929664;28;20231;-58
2022/08/16 03:34:00;;;;;;;7.03;4.87;;;;;;;20.18;65.32;97939.03;4927029;29;20226;-58
2022/08/16 03:36:28;;;;;;;7.97;5.87;;;;;;;20.15;64.41;97934.97;4900218;29;20292;-58
2022/08/16 03:38:58;;;;;;;7.40;5.33;;;;;;;20.16;64.64;97931.28;4894642;29;20231;-59
2022/08/16 03:41:26;;;;;;;7.03;5.37;;;;;;;20.18;64.97;97936.38;4930945;28;20239;-58
2022/08/16 03:43:57;;;;;;;6.03;5.43;;;;;;;20.13;64.92;97934.44;4944490;28;20236;-58
2022/08/16 03:46:28;;;;;;;7.20;5.30;;;;;;;20.03;65.29;97940.28;4944542;28;20273;-58
2022/08/16 03:48:57;;;;;;;8.77;5.17;;;;;;;20.01;64.96;97929.09;4912227;29;20278;-59
2022/08/16 03:51:25;;;;;;;7.87;5.10;;;;;;;20.00;65.03;97937.28;4916580;29;20643;-58
2022/08/16 03:53:56;;;;;;;7.17;5.13;;;;;;;19.91;65.68;97934.97;4933532;29;20244;-58
2022/08/16 03:56:25;;;;;;;7.47;5.10;;;;;;;19.91;65.80;97931.50;4915018;29;20234;-58
2022/08/16 03:58:55;;;;;;;9.43;5.10;;;;;;;19.87;66.12;97928.50;4944547;28;20238;-58
2022/08/16 04:01:26;;;;;;;8.90;5.43;;;;;;;19.77;66.62;97936.97;4930628;29;20314;-58
2022/08/16 04:03:54;;;;;;;5.83;5.20;;;;;;;19.65;66.97;97940.66;4914303;29;20237;-57
2022/08/16 04:06:21;;;;;;;8.73;5.43;;;;;;;19.65;67.05;97944.09;4930469;28;20226;-58
2022/08/16 04:08:50;;;;;;;8.60;5.60;;;;;;;19.64;67.10;97944.34;4913829;29;20250;-58
2022/08/16 04:11:17;;;;;;;8.53;5.03;;;;;;;19.54;67.56;97950.97;4914415;29;20230;-59
2022/08/16 04:13:46;;;;;;;7.93;5.70;;;;;;;19.47;68.14;97945.78;4927680;28;20309;-58
2022/08/16 04:16:16;;;;;;;8.90;5.17;;;;;;;19.42;68.48;97937.72;4945140;28;20234;-58
2022/08/16 04:18:47;;;;;;;7.37;5.07;;;;;;;19.43;68.05;97941.97;4943737;28;20940;-57
2022/08/16 04:21:14;;;;;;;7.43;5.10;;;;;;;19.32;68.48;97945.41;4929013;29;20273;-58
2022/08/16 04:23:41;;;;;;;7.80;5.30;;;;;;;19.32;68.85;97950.69;4927674;28;20340;-58
2022/08/16 04:26:12;;;;;;;7.03;5.53;;;;;;;19.23;69.09;97950.16;4928676;29;20230;-58
2022/08/16 04:28:40;;;;;;;8.10;5.73;;;;;;;19.23;69.12;97952.03;4941427;28;20224;-58
2022/08/16 04:31:10;;;;;;;10.47;5.40;;;;;;;19.13;70.13;97950.72;4928301;28;20223;-59
2022/08/16 04:33:39;;;;;;;8.27;5.17;;;;;;;19.02;70.25;97952.28;4911534;29;20296;-59
2022/08/16 04:36:06;;;;;;;6.27;5.67;;;;;;;19.01;70.79;97952.50;4915578;29;20726;-59
2022/08/16 04:38:34;;;;;;;10.43;5.87;;;;;;;19.05;70.99;97958.16;4944336;28;20232;-59
2022/08/16 04:41:01;;;;;;;7.47;5.20;;;;;;;19.00;70.68;97954.34;4916287;29;20269;-59
2022/08/16 04:43:29;;;;;;;9.80;5.80;;;;;;;18.97;71.01;97962.72;4917075;29;20236;-58
2022/08/16 04:45:59;;;;;;;7.27;5.23;;;;;;;18.93;71.17;97966.81;4928893;28;20324;-58
2022/08/16 04:48:26;;;;;;;7.33;5.80;;;;;;;18.86;72.22;97966.06;4930355;28;20238;-58
2022/08/16 04:50:58;;;;;;;6.20;5.37;;;;;;;18.88;71.75;97975.38;4930245;29;20240;-58
2022/08/16 04:53:37;;;;;;;7.33;6.20;;;;;;;18.81;72.47;97972.00;4929194;28;20762;-57
2022/08/16 04:56:04;;;;;;;15.87;6.30;;;;;;;18.76;72.93;97976.34;4912525;29;20263;-58
2022/08/16 04:58:34;;;;;;;9.23;5.67;;;;;;;18.76;72.88;97976.34;4910779;29;20261;-58
2022/08/16 05:01:03;;;;;;;10.67;5.77;;;;;;;18.78;72.42;97980.38;4929309;29;20253;-58
2022/08/16 05:03:32;;;;;;;8.50;5.50;;;;;;;18.78;73.10;97982.22;4919151;29;20718;-59
2022/08/16 05:05:59;;;;;;;8.63;5.80;;;;;;;18.76;73.42;97984.28;4933905;28;20713;-58
2022/08/16 05:08:27;;;;;;;7.37;5.57;;;;;;;18.76;73.52;97989.56;4911761;29;20241;-57
2022/08/16 05:10:59;;;;;;;7.10;6.13;;;;;;;18.72;73.49;97987.38;4942786;28;20240;-58
2022/08/16 05:13:27;;;;;;;6.67;6.07;;;;;;;18.67;74.56;97994.31;4913157;29;20237;-58
2022/08/16 05:15:57;;;;;;;6.23;5.60;;;;;;;18.62;74.25;97989.72;4926954;29;20261;-58
2022/08/16 05:18:26;;;;;;;8.73;6.23;;;;;;;18.57;75.00;97990.34;4911671;29;20299;-58
2022/08/16 05:20:55;;;;;;;6.63;5.67;;;;;;;18.55;75.19;97996.88;4912025;29;20325;-58
2022/08/16 05:23:22;;;;;;;11.10;6.80;;;;;;;18.48;75.26;97990.84;4927617;28;20246;-58
2022/08/16 05:25:50;;;;;;;6.50;5.90;;;;;;;18.46;75.71;97993.72;4911521;29;20340;-58
2022/08/16 05:28:18;;;;;;;8.07;6.47;;;;;;;18.47;76.20;97998.00;4926063;28;20776;-58
2022/08/16 05:30:51;;;;;;;6.70;5.90;;;;;;;18.44;75.96;98001.88;4908298;29;20235;-58
2022/08/16 05:33:24;;;;;;;8.57;6.63;;;;;;;18.47;76.34;97995.34;4926896;28;20320;-58
2022/08/16 05:35:52;;;;;;;7.83;6.67;;;;;;;18.52;76.83;97999.97;4926945;28;20240;-58
2022/08/16 05:38:26;;;;;;;8.10;5.90;;;;;;;18.44;77.08;97993.13;4911665;29;20321;-58
2022/08/16 05:40:57;;;;;;;7.37;6.00;;;;;;;18.46;76.95;97999.03;4927868;29;20234;-58
2022/08/16 05:43:24;;;;;;;9.10;6.20;;;;;;;18.50;76.79;97999.38;4915887;29;20324;-58
2022/08/16 05:45:53;;;;;;;7.37;6.10;;;;;;;18.58;76.30;98004.38;4913896;29;20238;-59
2022/08/16 05:48:21;;;;;;;8.23;6.30;;;;;;;18.69;76.10;98005.47;4915823;29;20597;-58
2022/08/16 05:51:12;;;;;;;9.73;6.47;;;;;;;18.73;75.66;98014.59;4925744;29;20242;-58
2022/08/16 05:53:39;;;;;;;8.37;5.77;;;;;;;18.81;74.79;98022.25;4916355;29;20257;-58
2022/08/16 05:56:13;;;;;;;6.53;5.90;;;;;;;18.91;74.43;98020.94;4919890;29;20226;-59
2022/08/16 05:58:43;;;;;;;7.37;5.87;;;;;;;19.03;74.08;98027.97;4930789;28;20313;-58
2022/08/16 06:01:13;;;;;;;11.50;8.27;;;;;;;19.10;74.16;98027.06;4929852;29;20239;-57
2022/08/16 06:03:43;;;;;;;18.00;11.00;;;;;;;19.16;74.45;98031.47;4935012;29;20235;-58
2022/08/16 06:06:19;;;;;;;11.37;9.23;;;;;;;19.20;75.56;98029.19;4916603;29;20231;-58
2022/08/16 06:08:46;;;;;;;14.53;10.87;;;;;;;19.18;76.01;98030.22;4930657;29;20317;-57
2022/08/16 06:11:14;;;;;;;13.50;10.07;;;;;;;19.22;77.02;98030.56;4930243;29;20261;-58
2022/08/16 06:13:46;;;;;;;12.80;9.23;;;;;;;19.24;76.65;98040.94;4931044;29;20279;-58
2022/08/16 06:16:17;;;;;;;11.83;9.80;;;;;;;19.26;76.22;98034.38;4932692;29;20235;-58
2022/08/16 06:18:44;;;;;;;13.67;8.90;;;;;;;19.31;76.39;98039.81;4923006;29;20244;-58
2022/08/16 06:21:12;;;;;;;12.47;8.50;;;;;;;19.39;77.24;98038.72;4909429;29;20326;-58
2022/08/16 06:23:42;;;;;;;12.07;8.07;;;;;;;19.44;77.10;98044.16;4930046;29;20646;-58
2022/08/16 06:26:11;;;;;;;13.50;8.90;;;;;;;19.53;76.07;98034.06;4931955;29;20229;-58
2022/08/16 06:28:42;;;;;;;10.57;7.80;;;;;;;19.57;75.76;98039.75;4914157;29;20324;-57
2022/08/16 06:31:16;;;;;;;9.13;7.57;;;;;;;19.61;75.98;98041.69;4932036;29;20233;-57
2022/08/16 06:33:46;;;;;;;10.87;8.07;;;;;;;19.66;76.33;98040.22;4913150;29;20234;-57
2022/08/16 06:36:16;;;;;;;9.73;8.37;;;;;;;19.71;76.31;98043.00;4931873;29;20238;-58
2022/08/16 06:38:56;;;;;;;10.43;8.30;;;;;;;19.80;75.68;98048.78;4909160;29;20242;-58
2022/08/16 06:41:32;;;;;;;12.63;9.17;;;;;;;19.83;74.41;98035.91;4931364;29;20245;-58
2022/08/16 06:44:09;;;;;;;14.30;9.73;;;;;;;19.93;73.69;98050.47;4930689;29;20237;-58
2022/08/16 06:46:37;;;;;;;16.90;9.37;;;;;;;20.08;73.68;98048.22;4931097;29;20803;-59
2022/08/16 06:49:12;;;;;;;12.70;8.27;;;;;;;20.14;73.71;98044.63;4917064;29;20237;-59
2022/08/16 06:51:41;;;;;;;12.00;8.90;;;;;;;20.10;74.49;98050.63;4913277;29;20246;-58
2022/08/16 06:54:09;;;;;;;13.67;9.90;;;;;;;20.10;74.28;98055.94;4927355;29;20785;-59
2022/08/16 06:56:37;;;;;;;9.70;8.13;;;;;;;20.00;75.33;98057.28;4914509;29;20704;-59
2022/08/16 06:59:08;;;;;;;11.27;7.37;;;;;;;19.97;74.51;98051.66;4930116;29;20276;-59
2022/08/16 07:01:37;;;;;;;9.73;6.30;;;;;;;19.93;73.69;98050.47;4913478;29;20690;-58
2022/08/16 07:04:05;;;;;;;11.53;6.67;;;;;;;19.98;73.03;98058.56;4914215;29;20294;-58
2022/08/16 07:06:34;;;;;;;7.33;5.67;;;;;;;20.12;71.65;98052.03;4929854;29;20855;-59
2022/08/16 07:09:10;;;;;;;9.70;6.07;;;;;;;20.15;71.81;98056.84;4914518;29;20318;-59
2022/08/16 07:11:41;;;;;;;9.33;6.70;;;;;;;20.09;71.91;98049.03;4912598;29;20227;-57
2022/08/16 07:14:09;;;;;;;11.13;6.00;;;;;;;20.14;72.07;98054.44;4913133;29;20756;-58
2022/08/16 07:16:42;;;;;;;10.30;6.10;;;;;;;20.17;73.71;98054.78;4927411;29;20240;-59
2022/08/16 07:19:09;;;;;;;7.70;6.90;;;;;;;20.22;72.21;98056.78;4913861;29;20262;-58
2022/08/16 07:21:40;;;;;;;9.43;7.97;;;;;;;20.16;72.17;98052.38;4929144;28;20298;-59
2022/08/16 07:24:11;;;;;;;8.10;7.17;;;;;;;20.23;71.50;98057.56;4932586;29;20227;-59
2022/08/16 07:26:40;;;;;;;10.23;7.07;;;;;;;20.40;70.40;98058.50;4930511;29;20235;-58
2022/08/16 07:29:08;;;;;;;9.77;6.80;;;;;;;20.68;69.70;98062.34;4921984;29;20218;-59
2022/08/16 07:31:36;;;;;;;10.03;6.80;;;;;;;20.93;68.34;98056.03;4930352;29;20219;-57
2022/08/16 07:34:03;;;;;;;9.20;5.97;;;;;;;21.09;67.70;98055.31;4928892;29;20227;-59
2022/08/16 07:36:32;;;;;;;6.13;5.53;;;;;;;21.31;67.24;98059.19;4933477;29;20223;-58
2022/08/16 07:38:59;;;;;;;8.00;5.93;;;;;;;21.43;66.80;98056.47;4930437;29;20239;-58
2022/08/16 07:41:33;;;;;;;7.27;5.30;;;;;;;21.71;66.19;98060.22;4929034;29;20258;-59
2022/08/16 07:44:02;;;;;;;6.23;5.00;;;;;;;21.89;66.28;98064.53;4929860;29;20591;-58
2022/08/16 07:46:30;;;;;;;10.17;5.40;;;;;;;22.10;63.94;98065.72;4929850;29;20224;-59
2022/08/16 07:48:59;;;;;;;9.07;5.80;;;;;;;22.30;62.95;98069.72;4934159;28;20700;-59
2022/08/16 07:51:26;;;;;;;6.87;5.10;;;;;;;22.38;61.72;98067.50;4916671;29;20369;-59
2022/08/16 07:53:53;;;;;;;8.47;4.70;;;;;;;22.71;61.34;98070.41;4932119;29;20247;-59
2022/08/16 07:56:20;;;;;;;5.53;4.90;;;;;;;22.96;59.63;98071.81;4932560;28;20309;-59
2022/08/16 07:58:49;;;;;;;7.60;5.00;;;;;;;23.06;60.42;98079.13;4931225;28;20240;-58
2022/08/16 08:01:16;;;;;;;6.83;5.47;;;;;;;23.03;58.63;98076.94;4930304;28;20252;-63
2022/08/16 08:03:47;;;;;;;8.50;5.10;;;;;;;23.02;59.51;98073.50;4926986;29;20257;-53
2022/08/16 08:06:14;;;;;;;9.00;5.13;;;;;;;22.97;58.67;98079.53;4929423;29;20777;-58
2022/08/16 08:08:42;;;;;;;8.70;5.37;;;;;;;23.02;57.36;98075.34;4911463;29;20222;-59
2022/08/16 08:11:09;;;;;;;7.87;4.90;;;;;;;22.74;59.11;98072.56;4927514;29;20224;-58
2022/08/16 08:13:36;;;;;;;7.50;5.00;;;;;;;22.79;59.68;98070.00;4906516;29;20220;-59
2022/08/16 08:16:05;;;;;;;7.23;5.40;;;;;;;22.87;58.74;98070.63;4928550;29;20243;-59
2022/08/16 08:18:32;;;;;;;9.73;5.17;;;;;;;22.96;58.14;98077.13;4920339;29;20655;-58
2022/08/16 08:21:01;;;;;;;9.07;5.50;;;;;;;22.74;59.30;98082.44;4930670;28;20232;-59
2022/08/16 08:23:33;;;;;;;9.50;5.40;;;;;;;22.88;57.94;98067.69;4926300;29;20233;-59
2022/08/16 08:26:01;;;;;;;7.13;5.10;;;;;;;22.88;58.02;98074.91;4911455;29;20242;-59
2022/08/16 08:28:30;;;;;;;6.93;5.50;;;;;;;22.66;58.28;98080.97;4930619;28;20242;-59
2022/08/16 08:31:06;;;;;;;8.43;5.77;;;;;;;22.60;58.21;98081.94;4922838;29;20238;-58
2022/08/16 08:33:38;;;;;;;7.43;5.37;;;;;;;22.62;58.45;98082.50;4930210;29;20228;-59
2022/08/16 08:36:10;;;;;;;8.33;5.47;;;;;;;22.61;58.27;98091.53;4927743;29;20311;-60
2022/08/16 08:38:37;;;;;;;8.77;5.17;;;;;;;22.64;57.68;98089.19;4914951;29;20239;-58
2022/08/16 08:41:07;;;;;;;7.27;5.00;;;;;;;22.76;59.17;98088.31;4932354;28;20242;-57
2022/08/16 08:43:34;;;;;;;7.33;5.70;;;;;;;22.84;57.71;98088.69;4925717;28;20249;-59
2022/08/16 08:46:02;;;;;;;7.93;5.77;;;;;;;22.83;56.57;98096.91;4925787;29;20748;-57
2022/08/16 08:48:31;;;;;;;8.13;5.77;;;;;;;22.74;57.45;98093.84;4915454;29;20723;-57
2022/08/16 08:50:58;;;;;;;7.87;5.53;;;;;;;22.72;56.75;98090.63;4925643;29;20230;-57
2022/08/16 08:53:25;;;;;;;8.00;5.43;;;;;;;22.67;55.90;98082.56;4932449;29;20241;-57
2022/08/16 08:55:53;;;;;;;6.77;5.87;;;;;;;22.70;55.84;98092.72;4927756;28;20313;-56
2022/08/16 08:58:20;;;;;;;8.77;5.80;;;;;;;22.83;55.68;98096.91;4929908;29;20741;-56
2022/08/16 09:01:07;;;;;;;8.73;5.77;;;;;;;22.83;55.51;98095.06;4911573;29;20234;-58
2022/08/16 09:03:40;;;;;;;9.37;6.33;;;;;;;22.81;56.69;98097.16;4907767;29;20666;-58
2022/08/16 09:06:08;;;;;;;8.53;6.20;;;;;;;22.89;55.27;98095.91;4924507;29;20240;-58
2022/08/16 09:08:39;;;;;;;6.80;5.83;;;;;;;22.87;54.46;98086.59;4927563;29;20230;-58
2022/08/16 09:11:10;;;;;;;9.03;5.87;;;;;;;22.82;55.88;98101.44;4915684;29;20237;-57
2022/08/16 09:13:39;;;;;;;9.80;5.97;;;;;;;22.56;55.78;98098.38;4930420;28;20235;-58
2022/08/16 09:16:07;;;;;;;13.20;5.90;;;;;;;22.51;56.00;98103.63;4928330;29;20325;-58
2022/08/16 09:18:38;;;;;;;7.17;5.47;;;;;;;22.69;55.73;98105.25;4930373;29;20546;-57
2022/08/16 09:21:06;;;;;;;7.60;5.53;;;;;;;22.82;54.94;98113.91;4929112;29;20237;-58
2022/08/16 09:23:35;;;;;;;6.50;4.93;;;;;;;22.80;54.39;98108.03;4926519;29;20317;-58
2022/08/16 09:26:05;;;;;;;7.27;5.57;;;;;;;22.81;54.19;98105.13;4927668;29;20636;-58
2022/08/16 09:28:32;;;;;;;6.97;5.47;;;;;;;22.82;54.34;98109.41;4926795;29;20238;-58
2022/08/16 09:31:15;;;;;;;5.67;5.07;;;;;;;23.07;53.35;98113.50;4927048;29;20239;-57
2022/08/16 09:33:43;;;;;;;6.27;5.50;;;;;;;23.43;53.36;98110.50;4902332;29;20261;-57
2022/08/16 09:36:11;;;;;;;10.53;5.90;;;;;;;23.65;52.86;98120.38;4913141;29;20244;-58
2022/08/16 09:38:39;;;;;;;8.07;5.40;;;;;;;23.67;52.36;98113.72;4916470;29;21159;-58
2022/08/16 09:41:09;;;;;;;8.70;5.27;;;;;;;23.56;52.23;98104.81;4914720;29;20294;-57
2022/08/16 09:43:37;;;;;;;6.60;4.93;;;;;;;23.58;52.31;98112.53;4906961;29;20219;-58
2022/08/16 09:46:09;;;;;;;6.97;5.13;;;;;;;23.73;52.77;98107.41;4915936;29;20233;-58
2022/08/16 09:48:40;;;;;;;6.33;5.07;;;;;;;24.01;51.89;98115.44;4917768;29;20293;-58
2022/08/16 09:51:09;;;;;;;7.87;5.60;;;;;;;24.05;52.00;98113.09;4908391;29;20727;-58
2022/08/16 09:53:37;;;;;;;6.17;5.57;;;;;;;24.11;52.30;98114.75;4915018;29;20298;-57
2022/08/16 09:56:07;;;;;;;9.30;5.40;;;;;;;24.00;50.80;98111.97;4930291;29;20237;-58
2022/08/16 09:58:35;;;;;;;7.07;5.40;;;;;;;24.24;50.76;98103.66;4915046;29;20250;-56
2022/08/16 10:01:01;;;;;;;5.57;4.67;;;;;;;24.23;50.52;98103.91;4929464;29;20247;-58
2022/08/16 10:03:28;;;;;;;4.93;4.40;;;;;;;24.39;50.81;98116.31;4915565;29;20241;-58
2022/08/16 10:05:55;;;;;;;6.87;4.57;;;;;;;24.29;49.40;98110.91;4916847;29;20717;-58
2022/08/16 10:08:23;;;;;;;6.90;5.23;;;;;;;24.21;50.34;98109.50;4916341;29;20251;-58
2022/08/16 10:13:38;;;;;;;6.63;4.50;;;;;;;24.14;48.68;98106.25;4913509;29;20234;-58
2022/08/16 10:16:05;;;;;;;6.27;4.87;;;;;;;24.28;49.88;98120.78;4915467;29;20250;-58
2022/08/16 10:18:33;;;;;;;6.27;4.83;;;;;;;24.53;49.28;98111.34;4912580;29;20242;-58
2022/08/16 10:20:59;;;;;;;11.83;4.90;;;;;;;24.46;48.24;98108.09;4914531;29;20241;-57
2022/08/16 10:23:28;;;;;;;6.33;5.03;;;;;;;24.24;48.95;98110.84;4920095;29;20350;-58
2022/08/16 10:25:55;;;;;;;5.83;4.57;;;;;;;24.17;49.56;98106.53;4919484;29;20239;-58
2022/08/16 10:28:22;;;;;;;5.93;4.57;;;;;;;24.41;49.51;98108.06;4918526;29;20238;-57
2022/08/16 10:30:49;;;;;;;8.23;5.10;;;;;;;24.44;49.60;98107.53;4914772;29;20236;-58
2022/08/16 10:33:16;;;;;;;11.40;5.40;;;;;;;24.64;50.12;98106.91;4920004;29;20294;-57
2022/08/16 10:35:44;;;;;;;7.90;4.70;;;;;;;24.78;49.63;98099.28;4913110;29;20238;-58
2022/08/16 10:38:12;;;;;;;5.73;4.80;;;;;;;24.95;47.94;98106.34;4928532;29;20232;-57
2022/08/16 10:40:41;;;;;;;8.47;4.50;;;;;;;24.80;46.95;98107.84;4916502;29;20779;-57
2022/08/16 10:43:08;;;;;;;5.93;4.30;;;;;;;25.04;46.88;98112.81;4917323;29;20238;-58
2022/08/16 10:45:35;;;;;;;6.10;4.43;;;;;;;24.83;46.32;98102.00;4913430;29;20601;-59
2022/08/16 10:48:02;;;;;;;6.07;4.60;;;;;;;24.96;46.53;98099.94;4915605;29;20242;-57
2022/08/16 10:50:30;;;;;;;8.70;5.00;;;;;;;24.99;46.31;98107.44;4916669;29;20241;-59
2022/08/16 10:53:05;;;;;;;4.43;3.73;;;;;;;25.17;45.99;98106.19;4928841;29;20243;-58
2022/08/16 10:55:35;;;;;;;7.17;4.27;;;;;;;25.27;45.10;98108.13;4907148;29;20776;-58
2022/08/16 10:58:04;;;;;;;9.00;4.03;;;;;;;25.55;44.37;98112.25;4916428;29;20290;-57
2022/08/16 11:00:32;;;;;;;7.87;4.30;;;;;;;25.45;45.33;98109.56;4929291;29;20489;-58
2022/08/16 11:03:00;;;;;;;8.73;3.93;;;;;;;25.53;44.60;98109.03;4908555;29;20410;-58
2022/08/16 11:05:28;;;;;;;4.53;3.90;;;;;;;25.60;45.16;98111.47;4911846;29;20326;-56
2022/08/16 11:07:55;;;;;;;6.47;3.77;;;;;;;25.52;43.62;98114.63;4917358;29;20259;-56
2022/08/16 11:10:25;;;;;;;7.90;4.30;;;;;;;25.61;44.50;98113.06;4917259;29;20232;-57
2022/08/16 11:12:52;;;;;;;4.50;3.87;;;;;;;25.68;44.50;98112.84;4930737;29;20247;-57
2022/08/16 11:15:20;;;;;;;4.63;3.57;;;;;;;25.76;43.52;98106.97;4918207;29;20244;-56
2022/08/16 11:17:49;;;;;;;5.43;3.93;;;;;;;25.71;43.46;98109.63;4916821;29;20287;-58
2022/08/16 11:20:16;;;;;;;6.03;3.83;;;;;;;25.82;43.35;98105.13;4908846;29;20229;-57
2022/08/16 11:22:44;;;;;;;4.63;3.90;;;;;;;25.77;43.26;98101.38;4914111;29;20240;-58
2022/08/16 11:25:12;;;;;;;4.47;3.77;;;;;;;25.76;42.96;98104.31;4914647;29;20237;-58
2022/08/16 11:27:39;;;;;;;6.70;3.90;;;;;;;26.01;42.68;98100.06;4917216;29;20231;-57
2022/08/16 11:30:08;;;;;;;4.80;4.07;;;;;;;25.77;43.06;98100.56;4913717;29;20251;-58
2022/08/16 11:32:37;;;;;;;5.03;3.70;;;;;;;26.02;43.01;98102.50;4901504;29;20250;-58
2022/08/16 11:35:07;;;;;;;4.07;3.67;;;;;;;26.06;42.67;98098.22;4901183;29;20286;-58
2022/08/16 11:37:35;;;;;;;8.53;4.07;;;;;;;26.03;43.25;98108.63;4913743;29;20240;-58
2022/08/16 11:40:04;;;;;;;6.17;4.20;;;;;;;26.00;43.00;98099.28;4908539;29;20647;-57
2022/08/16 11:42:31;;;;;;;7.07;4.00;;;;;;;26.09;43.18;98105.72;4907764;29;20273;-58